sensor_id;sensor_type;location;lat;lon;timestamp;temperature;humidity
4896;DHT22;2463;49.948;8.472;2023-05-01T00:02:00;14.20;99.90
4896;DHT22;2463;49.948;8.472;2023-05-01T00:04:27;14.20;99.90
4896;DHT22;2463;49.948;8.472;2023-05-01T00:06:54;14.10;99.90
4896;DHT22;2463;49.948;8.472;2023-05-01T00:09:21;14.20;99.90
4896;DHT22;2463;49.948;8.472;2023-05-01T00:11:47;14.10;99.90
4896;DHT22;2463;49.948;8.472;2023-05-01T00:14:14;14.10;99.90
4896;DHT22;2463;49.948;8.472;2023-05-01T00:16:41;14.10;99.90
4896;DHT22;2463;49.948;8.472;2023-05-01T00:19:08;14.10;99.90
4896;DHT22;2463;49.948;8.472;2023-05-01T00:21:35;14.00;99.90
4896;DHT22;2463;49.948;8.472;2023-05-01T00:24:01;14.00;99.90
4896;DHT22;2463;49.948;8.472;2023-05-01T00:26:28;14.00;99.90
4896;DHT22;2463;49.948;8.472;2023-05-01T00:28:57;14.00;99.90
4896;DHT22;2463;49.948;8.472;2023-05-01T00:31:24;13.90;99.90
4896;DHT22;2463;49.948;8.472;2023-05-01T00:33:51;13.90;99.90
4896;DHT22;2463;49.948;8.472;2023-05-01T00:36:19;13.80;99.90
4896;DHT22;2463;49.948;8.472;2023-05-01T00:38:45;13.80;99.90
4896;DHT22;2463;49.948;8.472;2023-05-01T00:41:12;13.80;99.90
4896;DHT22;2463;49.948;8.472;2023-05-01T00:43:39;13.70;99.90
4896;DHT22;2463;49.948;8.472;2023-05-01T00:46:06;13.70;99.90
4896;DHT22;2463;49.948;8.472;2023-05-01T00:48:33;13.60;99.90
4896;DHT22;2463;49.948;8.472;2023-05-01T00:51:03;13.60;99.90
4896;DHT22;2463;49.948;8.472;2023-05-01T00:53:30;13.60;99.90
4896;DHT22;2463;49.948;8.472;2023-05-01T00:55:58;13.50;99.90
4896;DHT22;2463;49.948;8.472;2023-05-01T00:58:26;13.50;99.90
4896;DHT22;2463;49.948;8.472;2023-05-01T01:00:54;13.40;99.90
4896;DHT22;2463;49.948;8.472;2023-05-01T01:03:20;13.40;99.90
4896;DHT22;2463;49.948;8.472;2023-05-01T01:05:54;13.30;99.90
4896;DHT22;2463;49.948;8.472;2023-05-01T01:08:34;13.30;99.90
4896;DHT22;2463;49.948;8.472;2023-05-01T01:11:21;13.30;99.90
4896;DHT22;2463;49.948;8.472;2023-05-01T01:14:01;13.20;99.90
4896;DHT22;2463;49.948;8.472;2023-05-01T01:16:45;13.20;99.90
4896;DHT22;2463;49.948;8.472;2023-05-01T01:22:14;13.00;99.90
4896;DHT22;2463;49.948;8.472;2023-05-01T01:32:58;12.80;99.90
4896;DHT22;2463;49.948;8.472;2023-05-01T01:35:31;12.80;99.90
4896;DHT22;2463;49.948;8.472;2023-05-01T01:38:06;12.80;99.90
4896;DHT22;2463;49.948;8.472;2023-05-01T01:40:58;12.70;99.90
4896;DHT22;2463;49.948;8.472;2023-05-01T01:43:32;12.70;99.90
4896;DHT22;2463;49.948;8.472;2023-05-01T01:46:05;12.60;99.90
4896;DHT22;2463;49.948;8.472;2023-05-01T01:48:36;12.60;99.90
4896;DHT22;2463;49.948;8.472;2023-05-01T01:51:10;12.60;99.90
4896;DHT22;2463;49.948;8.472;2023-05-01T01:53:39;12.60;99.90
4896;DHT22;2463;49.948;8.472;2023-05-01T01:56:07;12.60;99.90
4896;DHT22;2463;49.948;8.472;2023-05-01T01:58:36;12.60;99.90
4896;DHT22;2463;49.948;8.472;2023-05-01T02:01:04;12.60;99.90
4896;DHT22;2463;49.948;8.472;2023-05-01T02:03:32;12.50;99.90
4896;DHT22;2463;49.948;8.472;2023-05-01T02:06:00;12.50;99.90
4896;DHT22;2463;49.948;8.472;2023-05-01T02:08:29;12.50;99.90
4896;DHT22;2463;49.948;8.472;2023-05-01T02:10:58;12.50;99.90
4896;DHT22;2463;49.948;8.472;2023-05-01T02:13:28;12.40;99.90
4896;DHT22;2463;49.948;8.472;2023-05-01T02:15:57;12.40;99.90
4896;DHT22;2463;49.948;8.472;2023-05-01T02:18:26;12.40;99.90
4896;DHT22;2463;49.948;8.472;2023-05-01T02:20:56;12.40;99.90
4896;DHT22;2463;49.948;8.472;2023-05-01T02:23:26;12.30;99.90
4896;DHT22;2463;49.948;8.472;2023-05-01T02:25:55;12.30;99.90
4896;DHT22;2463;49.948;8.472;2023-05-01T02:28:25;12.20;99.90
4896;DHT22;2463;49.948;8.472;2023-05-01T02:30:52;12.20;99.90
4896;DHT22;2463;49.948;8.472;2023-05-01T02:33:19;12.20;99.90
4896;DHT22;2463;49.948;8.472;2023-05-01T02:35:46;12.20;99.90
4896;DHT22;2463;49.948;8.472;2023-05-01T02:38:14;12.10;99.90
4896;DHT22;2463;49.948;8.472;2023-05-01T02:40:45;12.10;99.90
4896;DHT22;2463;49.948;8.472;2023-05-01T02:43:14;12.00;99.90
4896;DHT22;2463;49.948;8.472;2023-05-01T02:45:43;12.00;99.90
4896;DHT22;2463;49.948;8.472;2023-05-01T02:48:13;12.00;99.90
4896;DHT22;2463;49.948;8.472;2023-05-01T02:50:43;12.00;99.90
4896;DHT22;2463;49.948;8.472;2023-05-01T02:53:11;12.00;99.90
4896;DHT22;2463;49.948;8.472;2023-05-01T02:55:38;12.00;99.90
4896;DHT22;2463;49.948;8.472;2023-05-01T02:58:05;12.00;99.90
4896;DHT22;2463;49.948;8.472;2023-05-01T03:00:32;11.90;99.90
4896;DHT22;2463;49.948;8.472;2023-05-01T03:03:00;11.90;99.90
4896;DHT22;2463;49.948;8.472;2023-05-01T03:05:26;12.00;99.90
4896;DHT22;2463;49.948;8.472;2023-05-01T03:07:53;12.00;99.90
4896;DHT22;2463;49.948;8.472;2023-05-01T03:10:20;12.00;99.90
4896;DHT22;2463;49.948;8.472;2023-05-01T03:12:47;12.00;99.90
4896;DHT22;2463;49.948;8.472;2023-05-01T03:15:13;12.00;99.90
4896;DHT22;2463;49.948;8.472;2023-05-01T03:17:40;12.00;99.90
4896;DHT22;2463;49.948;8.472;2023-05-01T03:20:07;12.00;99.90
4896;DHT22;2463;49.948;8.472;2023-05-01T03:22:36;12.00;99.90
4896;DHT22;2463;49.948;8.472;2023-05-01T03:25:03;12.00;99.90
4896;DHT22;2463;49.948;8.472;2023-05-01T03:27:30;12.00;99.90
4896;DHT22;2463;49.948;8.472;2023-05-01T03:29:56;12.00;99.90
4896;DHT22;2463;49.948;8.472;2023-05-01T03:32:23;12.00;99.90
4896;DHT22;2463;49.948;8.472;2023-05-01T03:34:50;12.00;99.90
4896;DHT22;2463;49.948;8.472;2023-05-01T03:37:17;12.00;99.90
4896;DHT22;2463;49.948;8.472;2023-05-01T03:39:43;12.00;99.90
4896;DHT22;2463;49.948;8.472;2023-05-01T03:42:10;12.10;99.90
4896;DHT22;2463;49.948;8.472;2023-05-01T03:44:37;12.10;99.90
4896;DHT22;2463;49.948;8.472;2023-05-01T03:47:04;12.10;99.90
4896;DHT22;2463;49.948;8.472;2023-05-01T03:49:30;12.10;99.90
4896;DHT22;2463;49.948;8.472;2023-05-01T03:51:57;12.10;99.90
4896;DHT22;2463;49.948;8.472;2023-05-01T03:54:23;12.10;99.90
4896;DHT22;2463;49.948;8.472;2023-05-01T03:56:51;12.10;99.90
4896;DHT22;2463;49.948;8.472;2023-05-01T03:59:17;12.20;99.90
4896;DHT22;2463;49.948;8.472;2023-05-01T04:01:44;12.20;99.90
4896;DHT22;2463;49.948;8.472;2023-05-01T04:04:11;12.20;99.90
4896;DHT22;2463;49.948;8.472;2023-05-01T04:06:38;12.10;99.90
4896;DHT22;2463;49.948;8.472;2023-05-01T04:09:05;12.10;99.90
4896;DHT22;2463;49.948;8.472;2023-05-01T04:11:32;12.20;99.90
4896;DHT22;2463;49.948;8.472;2023-05-01T04:13:59;12.20;99.90
4896;DHT22;2463;49.948;8.472;2023-05-01T04:16:25;12.20;99.90
4896;DHT22;2463;49.948;8.472;2023-05-01T04:18:52;12.20;99.90
4896;DHT22;2463;49.948;8.472;2023-05-01T04:21:19;12.20;99.90
4896;DHT22;2463;49.948;8.472;2023-05-01T04:23:45;12.20;99.90
4896;DHT22;2463;49.948;8.472;2023-05-01T04:26:12;12.20;99.90
4896;DHT22;2463;49.948;8.472;2023-05-01T04:28:39;12.20;99.90
4896;DHT22;2463;49.948;8.472;2023-05-01T04:31:05;12.20;99.90
4896;DHT22;2463;49.948;8.472;2023-05-01T04:33:32;12.30;99.90
4896;DHT22;2463;49.948;8.472;2023-05-01T04:35:59;12.30;99.90
4896;DHT22;2463;49.948;8.472;2023-05-01T04:38:26;12.30;99.90
4896;DHT22;2463;49.948;8.472;2023-05-01T04:40:54;12.20;99.90
4896;DHT22;2463;49.948;8.472;2023-05-01T04:43:21;12.20;99.90
4896;DHT22;2463;49.948;8.472;2023-05-01T04:45:48;12.20;99.90
4896;DHT22;2463;49.948;8.472;2023-05-01T04:48:14;12.20;99.90
4896;DHT22;2463;49.948;8.472;2023-05-01T04:50:41;12.20;99.90
4896;DHT22;2463;49.948;8.472;2023-05-01T04:53:08;12.30;99.90
4896;DHT22;2463;49.948;8.472;2023-05-01T04:55:35;12.30;99.90
4896;DHT22;2463;49.948;8.472;2023-05-01T04:58:02;12.30;99.90
4896;DHT22;2463;49.948;8.472;2023-05-01T05:00:30;12.30;99.90
4896;DHT22;2463;49.948;8.472;2023-05-01T05:02:57;12.40;99.90
4896;DHT22;2463;49.948;8.472;2023-05-01T05:05:23;12.40;99.90
4896;DHT22;2463;49.948;8.472;2023-05-01T05:07:50;12.40;99.90
4896;DHT22;2463;49.948;8.472;2023-05-01T05:10:17;12.50;99.90
4896;DHT22;2463;49.948;8.472;2023-05-01T05:12:43;12.50;99.90
4896;DHT22;2463;49.948;8.472;2023-05-01T05:15:10;12.60;99.90
4896;DHT22;2463;49.948;8.472;2023-05-01T05:17:37;12.60;99.90
4896;DHT22;2463;49.948;8.472;2023-05-01T05:20:04;12.70;99.90
4896;DHT22;2463;49.948;8.472;2023-05-01T05:22:35;12.70;99.90
4896;DHT22;2463;49.948;8.472;2023-05-01T05:25:02;12.80;99.90
4896;DHT22;2463;49.948;8.472;2023-05-01T05:27:32;12.80;99.90
4896;DHT22;2463;49.948;8.472;2023-05-01T05:30:04;12.90;99.90
4896;DHT22;2463;49.948;8.472;2023-05-01T05:32:31;12.90;99.90
4896;DHT22;2463;49.948;8.472;2023-05-01T05:34:59;13.00;99.90
4896;DHT22;2463;49.948;8.472;2023-05-01T05:37:25;13.10;99.90
4896;DHT22;2463;49.948;8.472;2023-05-01T05:39:52;13.10;99.90
4896;DHT22;2463;49.948;8.472;2023-05-01T05:42:19;13.20;99.90
4896;DHT22;2463;49.948;8.472;2023-05-01T05:44:46;13.20;99.90
4896;DHT22;2463;49.948;8.472;2023-05-01T05:47:12;13.30;99.90
4896;DHT22;2463;49.948;8.472;2023-05-01T05:49:39;13.30;99.90
4896;DHT22;2463;49.948;8.472;2023-05-01T05:52:06;13.40;99.90
4896;DHT22;2463;49.948;8.472;2023-05-01T05:54:32;13.40;99.90
4896;DHT22;2463;49.948;8.472;2023-05-01T05:56:59;13.50;99.90
4896;DHT22;2463;49.948;8.472;2023-05-01T05:59:26;13.60;99.90
4896;DHT22;2463;49.948;8.472;2023-05-01T06:01:53;13.70;99.90
4896;DHT22;2463;49.948;8.472;2023-05-01T06:04:20;13.90;99.90
4896;DHT22;2463;49.948;8.472;2023-05-01T06:06:47;14.00;99.90
4896;DHT22;2463;49.948;8.472;2023-05-01T06:09:14;14.20;99.90
4896;DHT22;2463;49.948;8.472;2023-05-01T06:11:42;14.30;99.90
4896;DHT22;2463;49.948;8.472;2023-05-01T06:14:09;14.50;99.90
4896;DHT22;2463;49.948;8.472;2023-05-01T06:16:36;14.70;99.90
4896;DHT22;2463;49.948;8.472;2023-05-01T06:19:04;14.80;99.90
4896;DHT22;2463;49.948;8.472;2023-05-01T06:21:30;14.90;99.90
4896;DHT22;2463;49.948;8.472;2023-05-01T06:23:57;15.00;99.90
4896;DHT22;2463;49.948;8.472;2023-05-01T06:26:24;15.00;99.90
4896;DHT22;2463;49.948;8.472;2023-05-01T06:28:51;15.00;99.90
4896;DHT22;2463;49.948;8.472;2023-05-01T06:31:18;15.00;99.90
4896;DHT22;2463;49.948;8.472;2023-05-01T06:33:45;15.10;99.90
4896;DHT22;2463;49.948;8.472;2023-05-01T06:36:11;15.10;99.90
4896;DHT22;2463;49.948;8.472;2023-05-01T06:38:38;15.20;99.90
4896;DHT22;2463;49.948;8.472;2023-05-01T06:41:05;15.20;99.90
4896;DHT22;2463;49.948;8.472;2023-05-01T06:43:32;15.20;99.90
4896;DHT22;2463;49.948;8.472;2023-05-01T06:45:59;15.20;99.90
4896;DHT22;2463;49.948;8.472;2023-05-01T06:48:26;15.30;99.90
4896;DHT22;2463;49.948;8.472;2023-05-01T06:50:52;15.30;99.90
4896;DHT22;2463;49.948;8.472;2023-05-01T06:53:19;15.40;99.90
4896;DHT22;2463;49.948;8.472;2023-05-01T06:55:46;15.60;99.90
4896;DHT22;2463;49.948;8.472;2023-05-01T06:58:12;15.70;99.90
4896;DHT22;2463;49.948;8.472;2023-05-01T07:00:49;15.90;99.90
4896;DHT22;2463;49.948;8.472;2023-05-01T07:03:16;16.10;99.90
4896;DHT22;2463;49.948;8.472;2023-05-01T07:05:43;16.30;99.90
4896;DHT22;2463;49.948;8.472;2023-05-01T07:08:09;16.50;99.90
4896;DHT22;2463;49.948;8.472;2023-05-01T07:10:36;16.60;99.90
4896;DHT22;2463;49.948;8.472;2023-05-01T07:13:06;16.80;99.90
4896;DHT22;2463;49.948;8.472;2023-05-01T07:15:33;17.00;99.90
4896;DHT22;2463;49.948;8.472;2023-05-01T07:18:00;17.10;99.90
4896;DHT22;2463;49.948;8.472;2023-05-01T07:20:28;17.10;99.90
4896;DHT22;2463;49.948;8.472;2023-05-01T07:22:55;17.20;99.90
4896;DHT22;2463;49.948;8.472;2023-05-01T07:25:22;17.30;99.90
4896;DHT22;2463;49.948;8.472;2023-05-01T07:27:48;17.40;99.90
4896;DHT22;2463;49.948;8.472;2023-05-01T07:30:15;17.50;99.90
4896;DHT22;2463;49.948;8.472;2023-05-01T07:32:42;17.60;99.90
4896;DHT22;2463;49.948;8.472;2023-05-01T07:35:09;17.70;99.90
4896;DHT22;2463;49.948;8.472;2023-05-01T07:37:35;17.80;99.90
4896;DHT22;2463;49.948;8.472;2023-05-01T07:40:02;17.90;99.90
4896;DHT22;2463;49.948;8.472;2023-05-01T07:42:29;17.90;99.90
4896;DHT22;2463;49.948;8.472;2023-05-01T07:44:56;18.00;99.90
4896;DHT22;2463;49.948;8.472;2023-05-01T07:47:22;18.10;99.90
4896;DHT22;2463;49.948;8.472;2023-05-01T07:49:49;18.30;99.90
4896;DHT22;2463;49.948;8.472;2023-05-01T07:52:16;18.40;99.90
4896;DHT22;2463;49.948;8.472;2023-05-01T07:54:47;18.50;99.90
4896;DHT22;2463;49.948;8.472;2023-05-01T07:57:14;18.50;99.90
4896;DHT22;2463;49.948;8.472;2023-05-01T07:59:40;19.10;99.90
4896;DHT22;2463;49.948;8.472;2023-05-01T08:02:07;18.70;99.90
4896;DHT22;2463;49.948;8.472;2023-05-01T08:04:34;18.70;99.90
4896;DHT22;2463;49.948;8.472;2023-05-01T08:07:01;18.80;99.90
4896;DHT22;2463;49.948;8.472;2023-05-01T08:09:27;18.70;99.90
4896;DHT22;2463;49.948;8.472;2023-05-01T08:11:54;18.90;99.90
4896;DHT22;2463;49.948;8.472;2023-05-01T08:14:21;19.00;99.90
4896;DHT22;2463;49.948;8.472;2023-05-01T08:16:47;19.10;99.90
4896;DHT22;2463;49.948;8.472;2023-05-01T08:19:20;19.20;99.90
4896;DHT22;2463;49.948;8.472;2023-05-01T08:21:47;19.40;99.90
4896;DHT22;2463;49.948;8.472;2023-05-01T08:24:13;19.50;99.90
4896;DHT22;2463;49.948;8.472;2023-05-01T08:26:40;19.60;99.90
4896;DHT22;2463;49.948;8.472;2023-05-01T08:29:07;19.50;99.90
4896;DHT22;2463;49.948;8.472;2023-05-01T08:31:33;19.50;99.90
4896;DHT22;2463;49.948;8.472;2023-05-01T08:34:03;19.70;99.90
4896;DHT22;2463;49.948;8.472;2023-05-01T08:36:30;19.90;99.90
4896;DHT22;2463;49.948;8.472;2023-05-01T08:38:58;20.00;99.90
4896;DHT22;2463;49.948;8.472;2023-05-01T08:41:26;20.00;99.90
4896;DHT22;2463;49.948;8.472;2023-05-01T08:43:55;20.20;99.90
4896;DHT22;2463;49.948;8.472;2023-05-01T08:46:37;20.30;99.90
4896;DHT22;2463;49.948;8.472;2023-05-01T08:49:08;20.50;99.90
4896;DHT22;2463;49.948;8.472;2023-05-01T08:51:37;20.60;99.90
4896;DHT22;2463;49.948;8.472;2023-05-01T08:54:04;20.90;99.90
4896;DHT22;2463;49.948;8.472;2023-05-01T08:56:35;21.20;99.90
4896;DHT22;2463;49.948;8.472;2023-05-01T08:59:03;21.50;99.90
4896;DHT22;2463;49.948;8.472;2023-05-01T09:01:32;21.80;99.90
4896;DHT22;2463;49.948;8.472;2023-05-01T09:04:01;22.20;99.80
4896;DHT22;2463;49.948;8.472;2023-05-01T09:06:29;22.60;99.50
4896;DHT22;2463;49.948;8.472;2023-05-01T09:08:58;22.70;98.30
4896;DHT22;2463;49.948;8.472;2023-05-01T09:11:25;22.90;97.80
4896;DHT22;2463;49.948;8.472;2023-05-01T09:13:52;23.20;97.10
4896;DHT22;2463;49.948;8.472;2023-05-01T09:16:20;23.40;96.30
4896;DHT22;2463;49.948;8.472;2023-05-01T09:18:47;23.70;97.40
4896;DHT22;2463;49.948;8.472;2023-05-01T09:21:14;24.00;96.20
4896;DHT22;2463;49.948;8.472;2023-05-01T09:23:41;24.30;95.40
4896;DHT22;2463;49.948;8.472;2023-05-01T09:26:07;24.60;95.60
4896;DHT22;2463;49.948;8.472;2023-05-01T09:28:47;24.80;96.40
4896;DHT22;2463;49.948;8.472;2023-05-01T09:31:28;24.80;93.80
4896;DHT22;2463;49.948;8.472;2023-05-01T09:33:57;24.70;92.30
4896;DHT22;2463;49.948;8.472;2023-05-01T09:36:26;24.50;92.80
4896;DHT22;2463;49.948;8.472;2023-05-01T09:38:53;24.50;91.60
4896;DHT22;2463;49.948;8.472;2023-05-01T09:41:21;24.60;93.90
4896;DHT22;2463;49.948;8.472;2023-05-01T09:43:57;24.80;92.50
4896;DHT22;2463;49.948;8.472;2023-05-01T09:46:25;25.20;92.80
4896;DHT22;2463;49.948;8.472;2023-05-01T09:48:57;25.60;92.50
4896;DHT22;2463;49.948;8.472;2023-05-01T09:51:29;25.70;91.00
4896;DHT22;2463;49.948;8.472;2023-05-01T09:53:58;25.80;90.00
4896;DHT22;2463;49.948;8.472;2023-05-01T09:56:26;26.10;88.30
4896;DHT22;2463;49.948;8.472;2023-05-01T09:58:55;26.40;90.60
4896;DHT22;2463;49.948;8.472;2023-05-01T10:01:41;26.60;91.00
4896;DHT22;2463;49.948;8.472;2023-05-01T10:04:09;26.70;88.70
4896;DHT22;2463;49.948;8.472;2023-05-01T10:06:36;26.80;81.80
4896;DHT22;2463;49.948;8.472;2023-05-01T10:09:04;26.70;83.70
4896;DHT22;2463;49.948;8.472;2023-05-01T10:11:49;26.50;82.60
4896;DHT22;2463;49.948;8.472;2023-05-01T10:14:18;26.60;82.30
4896;DHT22;2463;49.948;8.472;2023-05-01T10:16:45;26.70;83.30
4896;DHT22;2463;49.948;8.472;2023-05-01T10:19:12;27.10;89.00
4896;DHT22;2463;49.948;8.472;2023-05-01T10:21:40;27.30;86.10
4896;DHT22;2463;49.948;8.472;2023-05-01T10:24:07;27.60;86.50
4896;DHT22;2463;49.948;8.472;2023-05-01T10:26:36;27.80;79.40
4896;DHT22;2463;49.948;8.472;2023-05-01T10:29:03;27.80;79.40
4896;DHT22;2463;49.948;8.472;2023-05-01T10:31:30;28.00;80.00
4896;DHT22;2463;49.948;8.472;2023-05-01T10:33:59;28.20;81.20
4896;DHT22;2463;49.948;8.472;2023-05-01T10:36:37;28.50;77.90
4896;DHT22;2463;49.948;8.472;2023-05-01T10:39:05;28.70;74.70
4896;DHT22;2463;49.948;8.472;2023-05-01T10:44:25;28.50;72.10
4896;DHT22;2463;49.948;8.472;2023-05-01T10:46:53;28.50;76.70
4896;DHT22;2463;49.948;8.472;2023-05-01T10:49:20;28.40;73.40
4896;DHT22;2463;49.948;8.472;2023-05-01T10:51:57;28.20;73.00
4896;DHT22;2463;49.948;8.472;2023-05-01T10:54:25;28.30;72.70
4896;DHT22;2463;49.948;8.472;2023-05-01T10:56:57;28.70;72.00
4896;DHT22;2463;49.948;8.472;2023-05-01T10:59:25;28.60;70.80
4896;DHT22;2463;49.948;8.472;2023-05-01T11:01:52;28.60;69.90
4896;DHT22;2463;49.948;8.472;2023-05-01T11:09:53;29.30;70.80
4896;DHT22;2463;49.948;8.472;2023-05-01T11:15:12;29.70;68.90
4896;DHT22;2463;49.948;8.472;2023-05-01T11:23:01;27.80;64.10
4896;DHT22;2463;49.948;8.472;2023-05-01T11:25:29;27.70;69.60
4896;DHT22;2463;49.948;8.472;2023-05-01T11:28:02;27.60;68.30
4896;DHT22;2463;49.948;8.472;2023-05-01T11:30:39;27.60;64.10
4896;DHT22;2463;49.948;8.472;2023-05-01T11:33:06;27.40;70.20
4896;DHT22;2463;49.948;8.472;2023-05-01T11:35:37;27.60;74.00
4896;DHT22;2463;49.948;8.472;2023-05-01T11:38:04;27.60;71.10
4896;DHT22;2463;49.948;8.472;2023-05-01T11:40:33;27.70;70.80
4896;DHT22;2463;49.948;8.472;2023-05-01T11:43:07;27.80;73.70
4896;DHT22;2463;49.948;8.472;2023-05-01T11:45:35;27.70;71.40
4896;DHT22;2463;49.948;8.472;2023-05-01T11:48:03;27.90;75.00
4896;DHT22;2463;49.948;8.472;2023-05-01T11:50:35;28.10;70.70
4896;DHT22;2463;49.948;8.472;2023-05-01T11:53:12;28.50;73.90
4896;DHT22;2463;49.948;8.472;2023-05-01T11:55:41;28.80;67.70
4896;DHT22;2463;49.948;8.472;2023-05-01T11:58:08;29.00;71.00
4896;DHT22;2463;49.948;8.472;2023-05-01T12:00:39;28.70;67.90
4896;DHT22;2463;49.948;8.472;2023-05-01T12:03:09;28.60;66.90
4896;DHT22;2463;49.948;8.472;2023-05-01T12:05:41;28.20;64.40
4896;DHT22;2463;49.948;8.472;2023-05-01T12:10:38;27.40;65.90
4896;DHT22;2463;49.948;8.472;2023-05-01T12:13:06;27.30;66.30
4896;DHT22;2463;49.948;8.472;2023-05-01T12:15:35;27.40;68.30
4896;DHT22;2463;49.948;8.472;2023-05-01T12:18:04;26.90;68.30
4896;DHT22;2463;49.948;8.472;2023-05-01T12:20:35;26.50;68.70
4896;DHT22;2463;49.948;8.472;2023-05-01T12:23:04;26.10;70.80
4896;DHT22;2463;49.948;8.472;2023-05-01T12:25:32;26.10;71.70
4896;DHT22;2463;49.948;8.472;2023-05-01T12:28:07;26.00;69.40
4896;DHT22;2463;49.948;8.472;2023-05-01T12:30:36;25.70;73.50
4896;DHT22;2463;49.948;8.472;2023-05-01T12:33:16;25.80;73.00
4896;DHT22;2463;49.948;8.472;2023-05-01T12:35:45;25.90;75.80
4896;DHT22;2463;49.948;8.472;2023-05-01T12:38:16;26.00;72.00
4896;DHT22;2463;49.948;8.472;2023-05-01T12:40:54;26.40;77.00
4896;DHT22;2463;49.948;8.472;2023-05-01T12:45:55;26.30;69.50
4896;DHT22;2463;49.948;8.472;2023-05-01T12:48:23;26.10;71.80
4896;DHT22;2463;49.948;8.472;2023-05-01T12:50:50;26.40;73.30
4896;DHT22;2463;49.948;8.472;2023-05-01T12:53:25;26.70;74.90
4896;DHT22;2463;49.948;8.472;2023-05-01T12:55:57;26.50;70.70
4896;DHT22;2463;49.948;8.472;2023-05-01T12:58:36;25.90;72.50
4896;DHT22;2463;49.948;8.472;2023-05-01T13:01:04;25.90;72.90
4896;DHT22;2463;49.948;8.472;2023-05-01T13:03:32;25.90;74.10
4896;DHT22;2463;49.948;8.472;2023-05-01T13:06:02;25.80;72.80
4896;DHT22;2463;49.948;8.472;2023-05-01T13:08:35;25.60;70.90
4896;DHT22;2463;49.948;8.472;2023-05-01T13:11:16;25.40;71.60
4896;DHT22;2463;49.948;8.472;2023-05-01T13:13:47;25.30;70.30
4896;DHT22;2463;49.948;8.472;2023-05-01T13:16:15;25.30;72.30
4896;DHT22;2463;49.948;8.472;2023-05-01T13:18:47;25.20;70.20
4896;DHT22;2463;49.948;8.472;2023-05-01T13:21:18;25.30;74.20
4896;DHT22;2463;49.948;8.472;2023-05-01T13:23:57;25.60;74.60
4896;DHT22;2463;49.948;8.472;2023-05-01T13:26:32;26.00;75.10
4896;DHT22;2463;49.948;8.472;2023-05-01T13:29:02;26.30;74.70
4896;DHT22;2463;49.948;8.472;2023-05-01T13:31:31;26.40;71.30
4896;DHT22;2463;49.948;8.472;2023-05-01T13:33:59;26.70;68.50
4896;DHT22;2463;49.948;8.472;2023-05-01T13:36:30;26.50;69.00
4896;DHT22;2463;49.948;8.472;2023-05-01T13:38:58;25.90;69.30
4896;DHT22;2463;49.948;8.472;2023-05-01T13:41:25;25.20;69.00
4896;DHT22;2463;49.948;8.472;2023-05-01T13:43:54;25.00;73.50
4896;DHT22;2463;49.948;8.472;2023-05-01T13:46:23;25.20;74.20
4896;DHT22;2463;49.948;8.472;2023-05-01T13:48:50;25.60;75.10
4896;DHT22;2463;49.948;8.472;2023-05-01T13:51:22;26.20;74.80
4896;DHT22;2463;49.948;8.472;2023-05-01T13:53:50;26.70;74.30
4896;DHT22;2463;49.948;8.472;2023-05-01T13:56:18;27.00;68.20
4896;DHT22;2463;49.948;8.472;2023-05-01T13:58:45;26.60;65.40
4896;DHT22;2463;49.948;8.472;2023-05-01T14:01:19;26.20;66.30
4896;DHT22;2463;49.948;8.472;2023-05-01T14:03:48;26.00;68.40
4896;DHT22;2463;49.948;8.472;2023-05-01T14:06:18;25.90;66.00
4896;DHT22;2463;49.948;8.472;2023-05-01T14:08:46;25.90;67.60
4896;DHT22;2463;49.948;8.472;2023-05-01T14:11:14;26.20;68.80
4896;DHT22;2463;49.948;8.472;2023-05-01T14:13:42;26.20;67.40
4896;DHT22;2463;49.948;8.472;2023-05-01T14:16:11;26.40;73.20
4896;DHT22;2463;49.948;8.472;2023-05-01T14:18:46;26.70;68.30
4896;DHT22;2463;49.948;8.472;2023-05-01T14:21:14;27.10;69.00
4896;DHT22;2463;49.948;8.472;2023-05-01T14:23:41;27.40;68.70
4896;DHT22;2463;49.948;8.472;2023-05-01T14:26:09;27.80;71.60
4896;DHT22;2463;49.948;8.472;2023-05-01T14:28:40;28.10;71.40
4896;DHT22;2463;49.948;8.472;2023-05-01T14:31:08;28.20;66.40
4896;DHT22;2463;49.948;8.472;2023-05-01T14:33:43;27.30;67.80
4896;DHT22;2463;49.948;8.472;2023-05-01T14:36:11;26.70;65.60
4896;DHT22;2463;49.948;8.472;2023-05-01T14:38:38;26.40;68.50
4896;DHT22;2463;49.948;8.472;2023-05-01T14:41:05;25.80;67.20
4896;DHT22;2463;49.948;8.472;2023-05-01T14:43:40;25.60;67.30
4896;DHT22;2463;49.948;8.472;2023-05-01T14:46:09;25.60;68.90
4896;DHT22;2463;49.948;8.472;2023-05-01T14:48:39;25.80;71.10
4896;DHT22;2463;49.948;8.472;2023-05-01T14:51:18;26.00;69.70
4896;DHT22;2463;49.948;8.472;2023-05-01T14:53:45;26.10;70.50
4896;DHT22;2463;49.948;8.472;2023-05-01T14:56:11;25.90;70.30
4896;DHT22;2463;49.948;8.472;2023-05-01T14:58:38;25.80;72.40
4896;DHT22;2463;49.948;8.472;2023-05-01T15:01:05;25.60;69.10
4896;DHT22;2463;49.948;8.472;2023-05-01T15:03:33;25.40;67.50
4896;DHT22;2463;49.948;8.472;2023-05-01T15:06:07;25.00;67.70
4896;DHT22;2463;49.948;8.472;2023-05-01T15:08:35;24.60;69.90
4896;DHT22;2463;49.948;8.472;2023-05-01T15:11:02;24.50;71.30
4896;DHT22;2463;49.948;8.472;2023-05-01T15:13:28;24.40;71.40
4896;DHT22;2463;49.948;8.472;2023-05-01T15:15:57;24.30;72.00
4896;DHT22;2463;49.948;8.472;2023-05-01T15:18:24;24.10;70.70
4896;DHT22;2463;49.948;8.472;2023-05-01T15:20:51;23.90;71.10
4896;DHT22;2463;49.948;8.472;2023-05-01T15:23:18;23.80;72.90
4896;DHT22;2463;49.948;8.472;2023-05-01T15:25:45;23.80;71.90
4896;DHT22;2463;49.948;8.472;2023-05-01T15:28:13;23.70;75.10
4896;DHT22;2463;49.948;8.472;2023-05-01T15:30:43;23.80;75.10
4896;DHT22;2463;49.948;8.472;2023-05-01T15:33:12;23.50;74.30
4896;DHT22;2463;49.948;8.472;2023-05-01T15:35:43;23.30;76.10
4896;DHT22;2463;49.948;8.472;2023-05-01T15:38:11;23.20;76.30
4896;DHT22;2463;49.948;8.472;2023-05-01T15:40:37;23.00;70.60
4896;DHT22;2463;49.948;8.472;2023-05-01T15:43:04;23.00;74.00
4896;DHT22;2463;49.948;8.472;2023-05-01T15:45:32;22.80;76.10
4896;DHT22;2463;49.948;8.472;2023-05-01T15:47:59;22.60;75.30
4896;DHT22;2463;49.948;8.472;2023-05-01T15:50:26;22.60;75.80
4896;DHT22;2463;49.948;8.472;2023-05-01T15:52:53;22.50;75.30
4896;DHT22;2463;49.948;8.472;2023-05-01T15:55:20;22.60;74.60
4896;DHT22;2463;49.948;8.472;2023-05-01T15:57:47;22.70;76.00
4896;DHT22;2463;49.948;8.472;2023-05-01T16:00:14;22.80;75.60
4896;DHT22;2463;49.948;8.472;2023-05-01T16:02:42;23.00;76.90
4896;DHT22;2463;49.948;8.472;2023-05-01T16:05:11;23.10;75.30
4896;DHT22;2463;49.948;8.472;2023-05-01T16:07:38;23.10;76.90
4896;DHT22;2463;49.948;8.472;2023-05-01T16:10:06;22.90;70.40
4896;DHT22;2463;49.948;8.472;2023-05-01T16:12:33;22.80;70.60
4896;DHT22;2463;49.948;8.472;2023-05-01T16:15:01;22.60;71.30
4896;DHT22;2463;49.948;8.472;2023-05-01T16:17:30;22.50;75.40
4896;DHT22;2463;49.948;8.472;2023-05-01T16:19:59;22.20;75.10
4896;DHT22;2463;49.948;8.472;2023-05-01T16:22:27;22.10;74.00
4896;DHT22;2463;49.948;8.472;2023-05-01T16:24:55;21.90;77.30
4896;DHT22;2463;49.948;8.472;2023-05-01T16:27:23;21.80;74.00
4896;DHT22;2463;49.948;8.472;2023-05-01T16:29:49;21.70;74.50
4896;DHT22;2463;49.948;8.472;2023-05-01T16:32:16;21.70;73.30
4896;DHT22;2463;49.948;8.472;2023-05-01T16:34:43;21.60;75.30
4896;DHT22;2463;49.948;8.472;2023-05-01T16:37:12;21.30;73.70
4896;DHT22;2463;49.948;8.472;2023-05-01T16:39:39;21.30;73.60
4896;DHT22;2463;49.948;8.472;2023-05-01T16:42:05;21.20;75.10
4896;DHT22;2463;49.948;8.472;2023-05-01T16:44:34;21.20;74.00